Terminal Aerodrome Forecast
Issued by NWS

Home | Current Version | Previous Version | Text Only | Print | Product List | Glossary On
Versions: 1 2 3 4 5 6 7 8 9 10 11 12 13 14 15 16 17
000
FTAK31 PAJN 020536
TAFAWG
TAF
PAWG 020536Z 0206/0306 12006KT P6SM FEW010 SCT020 OVC050
      TEMPO 0207/0211 3SM RA BR SCT006 BKN010 OVC025
     FM021400 12007KT 6SM -RA BR SCT015 OVC035
     FM022200 VRB04KT P6SM -RA BKN035 OVC060
      AMD LTD TO CLD VIS AND WIND TIL 021500=

USA.gov is the U.S. government's official web portal to all federal, state and local government web resources and services.